createdAt,value
2023-01-21T00:01:03.493Z,95425.04
2023-01-21T00:03:30.552Z,95427.08
2023-01-21T00:05:57.798Z,95430.84
2023-01-21T00:08:25.633Z,95435.94
2023-01-21T00:10:53.117Z,95435.14
2023-01-21T00:13:20.169Z,95443.00
2023-01-21T00:15:47.182Z,95450.56
2023-01-21T00:18:14.188Z,95454.53
2023-01-21T00:20:41.276Z,95460.83
2023-01-21T00:23:10.231Z,95466.05
2023-01-21T00:25:37.253Z,95472.73
2023-01-21T00:28:04.289Z,95478.42
2023-01-21T00:30:31.273Z,95475.65
2023-01-21T00:32:58.261Z,95474.36
2023-01-21T00:35:25.254Z,95478.85
2023-01-21T00:37:52.330Z,95477.42
2023-01-21T00:40:19.892Z,95477.67
2023-01-21T00:42:46.870Z,95476.30
2023-01-21T00:45:13.969Z,95474.09
2023-01-21T00:47:41.337Z,95473.67
2023-01-21T00:50:09.348Z,95475.20
2023-01-21T00:52:36.451Z,95480.73
2023-01-21T00:55:04.019Z,95483.07
2023-01-21T00:57:31.153Z,95486.98
2023-01-21T00:59:58.379Z,95489.52
2023-01-21T01:02:25.475Z,95491.72
2023-01-21T01:04:52.575Z,95496.96
2023-01-21T01:07:19.521Z,95494.72
2023-01-21T01:09:46.475Z,95499.00
2023-01-21T01:12:13.462Z,95501.39
2023-01-21T01:14:40.402Z,95500.11
2023-01-21T01:17:08.514Z,95504.02
2023-01-21T01:19:35.423Z,95505.11
2023-01-21T01:22:02.353Z,95503.80
2023-01-21T01:24:30.222Z,95515.24
2023-01-21T01:26:57.184Z,95524.52
2023-01-21T01:29:24.496Z,95529.91
2023-01-21T01:31:51.514Z,95530.02
2023-01-21T01:34:18.654Z,95532.70
2023-01-21T01:36:45.547Z,95533.19
2023-01-21T01:39:12.475Z,95534.34
2023-01-21T01:41:39.450Z,95539.60
2023-01-21T01:44:44.424Z,95545.73
2023-01-21T01:47:11.432Z,95549.90
2023-01-21T01:49:38.473Z,95545.25
2023-01-21T01:52:07.619Z,95543.21
2023-01-21T01:54:48.117Z,95546.24
2023-01-21T01:57:18.137Z,95550.91
2023-01-21T01:59:46.633Z,95555.44
2023-01-21T02:02:18.883Z,95556.63
2023-01-21T02:04:53.635Z,95559.20
2023-01-21T02:07:23.291Z,95561.81
2023-01-21T02:09:52.763Z,95563.67
2023-01-21T02:12:20.035Z,95564.44
2023-01-21T02:14:48.153Z,95565.67
2023-01-21T02:17:44.389Z,95567.34
2023-01-21T02:20:20.399Z,95573.39
2023-01-21T02:23:11.743Z,95571.59
2023-01-21T02:26:10.670Z,95575.70
2023-01-21T02:28:49.501Z,95578.65
2023-01-21T02:31:25.635Z,95572.36
2023-01-21T02:34:04.533Z,95573.50
2023-01-21T02:36:37.399Z,95574.11
2023-01-21T02:39:19.320Z,95576.70
2023-01-21T02:42:07.718Z,95572.98
2023-01-21T02:45:03.702Z,95571.21
2023-01-21T02:47:54.049Z,95569.45
2023-01-21T02:50:26.005Z,95569.92
2023-01-21T02:53:01.150Z,95569.33
2023-01-21T02:55:37.497Z,95568.05
2023-01-21T02:58:13.004Z,95569.17
2023-01-21T03:00:55.093Z,95571.37
2023-01-21T03:03:34.623Z,95574.89
2023-01-21T03:06:26.258Z,95578.32
2023-01-21T03:09:20.316Z,95585.05
2023-01-21T03:12:21.920Z,95592.55
2023-01-21T03:15:22.531Z,95593.15
2023-01-21T03:18:24.860Z,95599.55
2023-01-21T03:21:01.315Z,95606.00
2023-01-21T03:23:32.504Z,95608.94
2023-01-21T03:26:00.408Z,95614.71
2023-01-21T03:28:31.986Z,95619.02
2023-01-21T03:31:11.897Z,95628.36
2023-01-21T03:33:46.733Z,95634.84
2023-01-21T03:36:46.456Z,95637.48
2023-01-21T03:39:34.711Z,95637.93
2023-01-21T03:42:02.406Z,95635.75
2023-01-21T03:44:29.498Z,95641.39
2023-01-21T03:47:04.307Z,95642.34
2023-01-21T03:49:37.984Z,95647.09
2023-01-21T03:52:06.227Z,95649.41
2023-01-21T03:54:33.259Z,95649.79
2023-01-21T03:57:00.294Z,95653.88
2023-01-21T03:59:27.225Z,95658.69
2023-01-21T04:01:54.368Z,95658.69
2023-01-21T04:04:21.424Z,95661.45
2023-01-21T04:06:48.450Z,95662.05
2023-01-21T04:09:15.560Z,95663.59
2023-01-21T04:11:42.556Z,95668.10
2023-01-21T04:14:09.561Z,95671.29
2023-01-21T04:16:36.552Z,95674.77
2023-01-21T04:19:03.846Z,95678.65
2023-01-21T04:21:30.994Z,95684.66
2023-01-21T04:23:57.950Z,95689.05
2023-01-21T04:26:25.031Z,95693.74
2023-01-21T04:28:51.995Z,95705.10
2023-01-21T04:31:19.030Z,95708.41
2023-01-21T04:33:45.986Z,95719.20
2023-01-21T04:36:13.169Z,95722.31
2023-01-21T04:38:40.195Z,95725.18
2023-01-21T04:41:07.133Z,95725.13
2023-01-21T04:43:34.107Z,95721.69
2023-01-21T04:46:01.496Z,95714.89
2023-01-21T04:48:28.515Z,95714.00
2023-01-21T04:50:55.448Z,95710.90
2023-01-21T04:53:22.518Z,95713.58
2023-01-21T04:55:52.929Z,95712.58
2023-01-21T04:58:20.709Z,95710.70
2023-01-21T05:00:47.661Z,95703.45
2023-01-21T05:03:16.051Z,95705.06
2023-01-21T05:05:43.020Z,95720.49
2023-01-21T05:08:09.950Z,95722.09
2023-01-21T05:10:36.904Z,95726.95
2023-01-21T05:13:03.990Z,95729.63
2023-01-21T05:15:31.639Z,95731.52
2023-01-21T05:17:59.932Z,95734.70
2023-01-21T05:20:27.111Z,95734.36
2023-01-21T05:22:54.036Z,95736.59
2023-01-21T05:25:20.950Z,95737.95
2023-01-21T05:27:52.769Z,95746.04
2023-01-21T05:30:20.344Z,95751.92
2023-01-21T05:32:54.435Z,95754.61
2023-01-21T05:35:23.302Z,95761.27
2023-01-21T05:37:50.432Z,95762.00
2023-01-21T05:40:18.221Z,95763.59
2023-01-21T05:42:45.605Z,95751.81
2023-01-21T05:45:13.258Z,95756.80
2023-01-21T05:47:40.560Z,95768.71
2023-01-21T05:50:08.774Z,95766.65
2023-01-21T05:52:35.857Z,95767.72
2023-01-21T05:55:03.589Z,95766.80
2023-01-21T05:57:31.405Z,95763.38
2023-01-21T05:59:58.416Z,95764.98
2023-01-21T06:02:26.114Z,95770.45
2023-01-21T06:04:53.151Z,95791.24
2023-01-21T06:07:20.290Z,95800.13
2023-01-21T06:09:47.306Z,95800.69
2023-01-21T06:12:14.284Z,95811.95
2023-01-21T06:14:41.322Z,95823.81
2023-01-21T06:17:08.340Z,95819.23
2023-01-21T06:19:35.380Z,95819.27
2023-01-21T06:22:02.377Z,95823.58
2023-01-21T06:24:29.352Z,95823.66
2023-01-21T06:26:56.304Z,95831.49
2023-01-21T06:29:23.308Z,95832.16
2023-01-21T06:31:50.352Z,95828.95
2023-01-21T06:34:17.387Z,95836.32
2023-01-21T06:36:44.399Z,95846.42
2023-01-21T06:39:11.479Z,95847.45
2023-01-21T06:41:38.883Z,95846.48
2023-01-21T06:44:06.059Z,95850.68
2023-01-21T06:46:33.215Z,95855.29
2023-01-21T06:49:00.253Z,95856.04
2023-01-21T06:51:27.493Z,95862.96
2023-01-21T06:53:54.490Z,95868.60
2023-01-21T06:56:22.049Z,95869.51
2023-01-21T06:58:48.998Z,95872.02
2023-01-21T07:01:16.030Z,95870.80
2023-01-21T07:03:43.730Z,95877.29
2023-01-21T07:06:10.775Z,95885.14
2023-01-21T07:08:37.708Z,95890.44
2023-01-21T07:11:04.863Z,95891.07
2023-01-21T07:13:31.844Z,95888.04
2023-01-21T07:16:01.993Z,95889.08
2023-01-21T07:18:29.083Z,95884.17
2023-01-21T07:20:56.893Z,95880.20
2023-01-21T07:23:23.863Z,95883.04
2023-01-21T07:25:51.001Z,95888.76
2023-01-21T07:28:18.018Z,95889.73
2023-01-21T07:30:45.061Z,95892.59
2023-01-21T07:33:12.125Z,95893.20
2023-01-21T07:35:39.225Z,95899.89
2023-01-21T07:38:06.233Z,95901.82
2023-01-21T07:40:33.364Z,95903.13
2023-01-21T07:43:00.447Z,95904.88
2023-01-21T07:45:27.383Z,95910.63
2023-01-21T07:47:54.436Z,95919.66
2023-01-21T07:50:21.472Z,95921.80
2023-01-21T07:52:48.662Z,95927.16
2023-01-21T07:55:16.041Z,95926.66
2023-01-21T07:57:43.070Z,95930.10
2023-01-21T08:00:10.596Z,95931.50
2023-01-21T08:02:40.416Z,95946.70
2023-01-21T08:05:07.939Z,95956.13
2023-01-21T08:07:35.381Z,95955.06
2023-01-21T08:10:02.423Z,95959.46
2023-01-21T08:12:29.404Z,95962.70
2023-01-21T08:14:56.284Z,95965.84
2023-01-21T08:17:23.287Z,95970.23
2023-01-21T08:19:50.217Z,95968.62
2023-01-21T08:22:17.172Z,95968.20
2023-01-21T08:24:44.110Z,95961.90
2023-01-21T08:27:11.045Z,95958.66
2023-01-21T08:29:39.419Z,95961.16
2023-01-21T08:32:06.398Z,95960.21
2023-01-21T08:34:33.506Z,95960.28
2023-01-21T08:37:00.845Z,95968.31
2023-01-21T08:39:27.771Z,95970.21
2023-01-21T08:41:54.674Z,95971.54
2023-01-21T08:44:21.600Z,95979.23
2023-01-21T08:46:49.059Z,95985.94
2023-01-21T08:49:16.088Z,95995.14
2023-01-21T08:51:43.270Z,96002.65
2023-01-21T08:54:10.327Z,96010.14
2023-01-21T08:56:37.281Z,96016.21
2023-01-21T08:59:04.243Z,96022.83
2023-01-21T09:01:31.309Z,96021.16
2023-01-21T09:04:00.425Z,96022.83
2023-01-21T09:06:29.276Z,96025.41
2023-01-21T09:08:56.616Z,96022.57
2023-01-21T09:11:24.045Z,96024.77
2023-01-21T09:13:51.248Z,96028.00
2023-01-21T09:16:20.954Z,96024.50
2023-01-21T09:18:48.603Z,96026.23
2023-01-21T09:21:16.178Z,96029.42
2023-01-21T09:23:43.858Z,96031.23
2023-01-21T09:26:24.675Z,96034.85
2023-01-21T09:28:59.320Z,96032.79
2023-01-21T09:31:28.414Z,96038.61
2023-01-21T09:33:59.039Z,96039.24
2023-01-21T09:36:29.583Z,96035.14
2023-01-21T09:38:57.106Z,96033.77
2023-01-21T09:41:34.518Z,96035.82
2023-01-21T09:44:33.268Z,96033.45
2023-01-21T09:47:31.095Z,96036.17
2023-01-21T09:50:04.887Z,96032.73
2023-01-21T09:52:38.111Z,96034.73
2023-01-21T09:55:13.990Z,96046.62
2023-01-21T09:58:04.560Z,96056.79
2023-01-21T10:00:48.969Z,96064.95
2023-01-21T10:03:15.892Z,96066.95
2023-01-21T10:06:08.834Z,96062.99
2023-01-21T10:08:44.841Z,96052.50
2023-01-21T10:11:41.346Z,96047.29
2023-01-21T10:14:26.445Z,96037.55
2023-01-21T10:17:12.587Z,96036.90
2023-01-21T10:19:51.874Z,96032.70
2023-01-21T10:22:24.986Z,96032.34
2023-01-21T10:25:03.232Z,96025.53
2023-01-21T10:27:34.896Z,96020.27
2023-01-21T10:30:20.356Z,96022.17
2023-01-21T10:32:50.870Z,96018.39
2023-01-21T10:35:24.065Z,96018.48
2023-01-21T10:38:05.497Z,96020.17
2023-01-21T10:40:47.235Z,96011.65
2023-01-21T10:43:35.510Z,96005.06
2023-01-21T10:46:08.256Z,96009.84
2023-01-21T10:49:10.575Z,96008.66
2023-01-21T10:51:50.451Z,96002.55
2023-01-21T10:54:36.047Z,96000.73
2023-01-21T10:57:14.400Z,96018.34
2023-01-21T10:59:42.404Z,96023.69
2023-01-21T11:02:12.111Z,96029.50
2023-01-21T11:04:41.371Z,96029.10
2023-01-21T11:07:12.329Z,96027.17
2023-01-21T11:09:40.792Z,96042.39
2023-01-21T11:12:15.675Z,96054.39
2023-01-21T11:14:48.466Z,96057.13
2023-01-21T11:17:35.895Z,96058.15
2023-01-21T11:20:15.020Z,96039.27
2023-01-21T11:22:45.879Z,96025.57
2023-01-21T11:25:36.963Z,96035.38
2023-01-21T11:28:04.613Z,96039.45
2023-01-21T11:30:49.527Z,96035.70
2023-01-21T11:33:25.302Z,96032.48
2023-01-21T11:35:54.177Z,96031.62
2023-01-21T11:38:33.401Z,96029.38
2023-01-21T11:41:22.356Z,96029.41
2023-01-21T11:43:55.050Z,96036.80
2023-01-21T11:46:38.356Z,96026.81
2023-01-21T11:49:05.220Z,96026.41
2023-01-21T11:51:33.020Z,96024.10
2023-01-21T11:54:22.787Z,96021.73
2023-01-21T11:56:58.964Z,96029.23
2023-01-21T11:59:35.265Z,96035.99
2023-01-21T12:02:05.158Z,96034.92
2023-01-21T12:04:33.982Z,96021.79
2023-01-21T12:07:01.724Z,96021.96
2023-01-21T12:09:28.947Z,96023.28
2023-01-21T12:12:39.900Z,96027.67
2023-01-21T12:15:40.580Z,96032.69
2023-01-21T12:18:36.891Z,96014.80
2023-01-21T12:21:10.305Z,96003.52
2023-01-21T12:23:49.339Z,96001.86
2023-01-21T12:26:53.769Z,96004.59
2023-01-21T12:29:43.515Z,96015.92
2023-01-21T12:32:32.772Z,96019.51
2023-01-21T12:35:08.302Z,96024.57
2023-01-21T12:37:50.797Z,96032.46
2023-01-21T12:40:21.362Z,96043.21
2023-01-21T12:42:54.663Z,96046.70
2023-01-21T12:45:37.599Z,96053.27
2023-01-21T12:48:21.308Z,96043.84
2023-01-21T12:50:54.909Z,96042.95
2023-01-21T12:53:45.209Z,96037.48
2023-01-21T12:56:12.142Z,96039.52
2023-01-21T12:58:45.484Z,96050.32
2023-01-21T13:01:18.605Z,96050.84
2023-01-21T13:03:51.712Z,96046.20
2023-01-21T13:06:29.728Z,96043.11
2023-01-21T13:09:35.253Z,96044.95
2023-01-21T13:12:16.896Z,96041.44
2023-01-21T13:14:48.488Z,96036.83
2023-01-21T13:17:22.034Z,96036.36
2023-01-21T13:19:49.855Z,96031.61
2023-01-21T13:22:42.456Z,96035.38
2023-01-21T13:25:19.643Z,96034.42
2023-01-21T13:27:59.595Z,96042.18
2023-01-21T13:30:39.802Z,96040.52
2023-01-21T13:33:06.777Z,96042.60
2023-01-21T13:35:42.646Z,96045.23
2023-01-21T13:38:34.653Z,96049.77
2023-01-21T13:41:33.611Z,96050.34
2023-01-21T13:44:44.015Z,96053.65
2023-01-21T13:47:26.190Z,96047.86
2023-01-21T13:49:56.044Z,96045.52
2023-01-21T13:52:27.243Z,96046.08
2023-01-21T13:54:57.352Z,96047.78
2023-01-21T13:57:43.647Z,96049.88
2023-01-21T14:00:31.299Z,96050.73
2023-01-21T14:03:06.587Z,96039.48
2023-01-21T14:05:40.210Z,96039.48
2023-01-21T14:08:20.535Z,96037.79
2023-01-21T14:10:53.457Z,96040.36
2023-01-21T14:13:38.861Z,96050.65
2023-01-21T14:16:30.369Z,96054.34
2023-01-21T14:19:21.510Z,96056.58
2023-01-21T14:21:58.037Z,96061.00
2023-01-21T14:24:36.996Z,96061.80
2023-01-21T14:27:14.967Z,96070.16
2023-01-21T14:29:50.397Z,96073.98
2023-01-21T14:32:40.575Z,96075.88
2023-01-21T14:35:27.719Z,96072.00
2023-01-21T14:38:06.763Z,96087.83
2023-01-21T14:40:43.432Z,96088.27
2023-01-21T14:43:39.868Z,96087.34
2023-01-21T14:46:33.162Z,96086.90
2023-01-21T14:49:08.355Z,96088.29
2023-01-21T14:51:49.360Z,96093.06
2023-01-21T14:54:21.418Z,96088.39
2023-01-21T14:57:13.746Z,96089.40
2023-01-21T14:59:45.651Z,96096.91
2023-01-21T15:02:33.606Z,96102.20
2023-01-21T15:05:25.394Z,96107.73
2023-01-21T15:08:19.027Z,96103.68
2023-01-21T15:10:57.971Z,96107.13
2023-01-21T15:13:34.532Z,96100.90
2023-01-21T15:16:32.178Z,96096.70
2023-01-21T15:19:08.263Z,96101.10
2023-01-21T15:21:41.756Z,96099.58
2023-01-21T15:24:18.116Z,96097.71
2023-01-21T15:27:21.308Z,96100.16
2023-01-21T15:29:54.370Z,96103.40
2023-01-21T15:32:25.893Z,96102.06
2023-01-21T15:35:17.089Z,96105.90
2023-01-21T15:37:46.573Z,96110.70
2023-01-21T15:40:39.342Z,96114.20
2023-01-21T15:43:13.075Z,96116.40
2023-01-21T15:45:53.628Z,96118.27
2023-01-21T15:48:41.152Z,96124.58
2023-01-21T15:51:27.256Z,96125.03
2023-01-21T15:53:59.982Z,96126.68
2023-01-21T15:56:48.536Z,96125.48
2023-01-21T15:59:24.533Z,96132.96
2023-01-21T16:02:07.856Z,96141.73
2023-01-21T16:04:44.542Z,96148.97
2023-01-21T16:07:17.788Z,96146.73
2023-01-21T16:10:02.965Z,96134.55
2023-01-21T16:12:46.915Z,96132.02
2023-01-21T16:15:27.817Z,96132.83
2023-01-21T16:18:06.075Z,96138.76
2023-01-21T16:20:33.920Z,96145.83
2023-01-21T16:23:05.115Z,96149.52
2023-01-21T16:25:32.183Z,96155.57
2023-01-21T16:27:59.125Z,96158.83
2023-01-21T16:30:29.124Z,96170.81
2023-01-21T16:33:16.027Z,96178.36
2023-01-21T16:35:49.766Z,96178.23
2023-01-21T16:38:28.812Z,96171.74
2023-01-21T16:41:07.959Z,96171.40
2023-01-21T16:43:49.294Z,96174.41
2023-01-21T16:46:45.561Z,96182.68
2023-01-21T16:49:15.509Z,96179.69
2023-01-21T16:51:56.440Z,96178.23
2023-01-21T16:54:26.356Z,96171.85
2023-01-21T16:56:57.721Z,96172.67
2023-01-21T16:59:28.901Z,96175.98
2023-01-21T17:01:57.997Z,96179.29
2023-01-21T17:04:25.209Z,96173.68
2023-01-21T17:06:53.422Z,96168.71
2023-01-21T17:09:34.292Z,96166.23
2023-01-21T17:12:06.455Z,96169.55
2023-01-21T17:14:34.961Z,96176.80
2023-01-21T17:17:06.173Z,96177.95
2023-01-21T17:19:37.132Z,96185.01
2023-01-21T17:22:12.014Z,96184.48
2023-01-21T17:24:43.401Z,96188.34
2023-01-21T17:27:16.232Z,96188.11
2023-01-21T17:29:45.418Z,96177.84
2023-01-21T17:32:30.582Z,96171.75
2023-01-21T17:35:07.049Z,96181.23
2023-01-21T17:38:03.680Z,96187.13
2023-01-21T17:40:58.248Z,96189.81
2023-01-21T17:43:27.477Z,96191.70
2023-01-21T17:45:56.700Z,96202.45
2023-01-21T17:48:33.454Z,96206.79
2023-01-21T17:51:05.782Z,96214.89
2023-01-21T17:53:40.512Z,96215.83
2023-01-21T17:56:08.379Z,96208.98
2023-01-21T17:58:51.657Z,96210.88
2023-01-21T18:01:20.671Z,96221.70
2023-01-21T18:03:48.263Z,96227.85
2023-01-21T18:06:19.376Z,96230.02
2023-01-21T18:08:46.335Z,96231.95
2023-01-21T18:11:15.702Z,96233.16
2023-01-21T18:13:43.091Z,96231.30
2023-01-21T18:16:10.249Z,96234.71
2023-01-21T18:18:38.250Z,96239.38
2023-01-21T18:21:05.736Z,96233.90
2023-01-21T18:23:32.757Z,96234.77
2023-01-21T18:25:59.820Z,96237.77
2023-01-21T18:28:28.408Z,96238.89
2023-01-21T18:30:57.435Z,96244.02
2023-01-21T18:33:25.186Z,96246.63
2023-01-21T18:35:52.437Z,96247.39
2023-01-21T18:38:26.570Z,96251.73
2023-01-21T18:40:56.966Z,96253.08
2023-01-21T18:43:27.161Z,96252.52
2023-01-21T18:45:54.828Z,96250.59
2023-01-21T18:48:28.595Z,96252.61
2023-01-21T18:50:55.853Z,96251.23
2023-01-21T18:53:23.057Z,96249.20
2023-01-21T18:55:53.291Z,96244.23
2023-01-21T18:58:20.402Z,96244.89
2023-01-21T19:00:48.224Z,96250.37
2023-01-21T19:03:16.154Z,96256.46
2023-01-21T19:05:47.080Z,96256.67
2023-01-21T19:08:17.597Z,96257.71
2023-01-21T19:10:44.753Z,96259.55
2023-01-21T19:13:12.121Z,96260.00
2023-01-21T19:15:39.145Z,96264.38
2023-01-21T19:18:10.812Z,96268.63
2023-01-21T19:20:41.143Z,96265.36
2023-01-21T19:23:16.552Z,96259.66
2023-01-21T19:25:55.011Z,96257.27
2023-01-21T19:28:24.201Z,96258.16
2023-01-21T19:30:54.690Z,96257.59
2023-01-21T19:33:22.270Z,96256.62
2023-01-21T19:35:54.413Z,96249.20
2023-01-21T19:38:22.554Z,96252.94
2023-01-21T19:40:50.172Z,96251.45
2023-01-21T19:43:21.480Z,96252.35
2023-01-21T19:45:50.905Z,96253.77
2023-01-21T19:48:20.166Z,96257.14
2023-01-21T19:50:47.495Z,96254.94
2023-01-21T19:53:17.465Z,96255.35
2023-01-21T19:55:45.723Z,96251.39
2023-01-21T19:58:19.672Z,96248.73
2023-01-21T20:00:50.398Z,96248.72
2023-01-21T20:03:19.400Z,96251.10
2023-01-21T20:05:53.904Z,96248.83
2023-01-21T20:08:26.927Z,96248.72
2023-01-21T20:10:53.912Z,96249.87
2023-01-21T20:13:21.071Z,96255.27
2023-01-21T20:15:50.577Z,96257.09
2023-01-21T20:18:21.616Z,96260.52
2023-01-21T20:20:49.172Z,96267.20
2023-01-21T20:23:16.953Z,96271.22
2023-01-21T20:25:46.328Z,96275.68
2023-01-21T20:28:21.145Z,96275.98
2023-01-21T20:30:49.368Z,96281.27
2023-01-21T20:33:22.265Z,96280.77
2023-01-21T20:35:52.168Z,96287.37
2023-01-21T20:38:34.072Z,96288.67
2023-01-21T20:41:02.811Z,96285.54
2023-01-21T20:43:31.000Z,96284.77
2023-01-21T20:46:01.277Z,96274.41
2023-01-21T20:48:36.112Z,96259.63
2023-01-21T20:51:03.578Z,96273.27
2023-01-21T20:53:30.738Z,96290.29
2023-01-21T20:56:00.207Z,96295.66
2023-01-21T20:58:27.611Z,96301.16
2023-01-21T21:00:54.925Z,96300.45
2023-01-21T21:03:22.105Z,96303.26
2023-01-21T21:05:49.191Z,96306.27
2023-01-21T21:08:18.914Z,96299.48
2023-01-21T21:10:46.575Z,96287.77
2023-01-21T21:13:14.929Z,96289.39
2023-01-21T21:15:45.029Z,96296.88
2023-01-21T21:18:13.935Z,96307.63
2023-01-21T21:20:41.629Z,96318.15
2023-01-21T21:23:13.694Z,96317.73
2023-01-21T21:25:43.471Z,96325.91
2023-01-21T21:28:13.241Z,96333.66
2023-01-21T21:30:40.272Z,96332.07
2023-01-21T21:33:20.184Z,96329.44
2023-01-21T21:35:47.899Z,96326.98
2023-01-21T21:38:22.884Z,96323.77
2023-01-21T21:40:52.469Z,96322.98
2023-01-21T21:43:32.836Z,96325.81
2023-01-21T21:46:26.302Z,96316.73
2023-01-21T21:48:53.342Z,96315.61
2023-01-21T21:51:23.621Z,96315.45
2023-01-21T21:53:51.482Z,96313.42
2023-01-21T21:56:23.025Z,96318.83
2023-01-21T21:58:50.735Z,96319.13
2023-01-21T22:01:23.766Z,96317.69
2023-01-21T22:03:51.695Z,96309.27
2023-01-21T22:06:20.678Z,96313.22
2023-01-21T22:08:48.591Z,96310.51
2023-01-21T22:11:17.891Z,96311.54
2023-01-21T22:13:49.887Z,96311.00
2023-01-21T22:16:21.488Z,96310.26
2023-01-21T22:18:48.542Z,96312.61
2023-01-21T22:21:24.620Z,96323.11
2023-01-21T22:23:52.079Z,96323.73
2023-01-21T22:26:21.551Z,96317.26
2023-01-21T22:28:50.739Z,96314.83
2023-01-21T22:31:29.799Z,96314.40
2023-01-21T22:33:58.554Z,96308.08
2023-01-21T22:36:29.018Z,96308.27
2023-01-21T22:38:56.105Z,96304.84
2023-01-21T22:41:23.831Z,96308.19
2023-01-21T22:43:51.569Z,96310.63
2023-01-21T22:46:29.519Z,96311.56
2023-01-21T22:48:56.958Z,96302.48
2023-01-21T22:51:24.061Z,96293.71
2023-01-21T22:53:52.171Z,96297.14
2023-01-21T22:56:31.433Z,96308.73
2023-01-21T22:59:02.637Z,96324.51
2023-01-21T23:01:30.862Z,96320.98
2023-01-21T23:03:59.193Z,96323.03
2023-01-21T23:06:26.340Z,96327.11
2023-01-21T23:08:53.483Z,96324.54
2023-01-21T23:11:20.936Z,96314.30
2023-01-21T23:13:49.105Z,96316.27
2023-01-21T23:16:18.492Z,96310.88
2023-01-21T23:18:45.548Z,96320.83
2023-01-21T23:21:19.621Z,96336.95
2023-01-21T23:23:47.034Z,96332.31
2023-01-21T23:26:14.673Z,96334.27
2023-01-21T23:28:42.689Z,96339.48
2023-01-21T23:31:15.577Z,96341.23
2023-01-21T23:33:42.636Z,96335.17
2023-01-21T23:36:12.716Z,96337.85
2023-01-21T23:38:40.964Z,96336.48
2023-01-21T23:41:10.734Z,96340.59
2023-01-21T23:43:38.113Z,96339.27
2023-01-21T23:46:07.217Z,96343.91
2023-01-21T23:48:34.152Z,96343.14
2023-01-21T23:51:03.349Z,96335.23
2023-01-21T23:53:31.467Z,96332.32
2023-01-21T23:56:20.705Z,96340.60
2023-01-21T23:58:48.240Z,96343.73
